sensor_id;sensor_type;location;lat;lon;timestamp;temperature;humidity
21019;DHT22;10667;51.056;3.732;2023-10-13T00:01:57;19.00;99.90
21019;DHT22;10667;51.056;3.732;2023-10-13T00:04:28;19.00;99.90
21019;DHT22;10667;51.056;3.732;2023-10-13T00:06:55;19.00;99.90
21019;DHT22;10667;51.056;3.732;2023-10-13T00:09:40;19.10;99.90
21019;DHT22;10667;51.056;3.732;2023-10-13T00:12:07;19.10;99.90
21019;DHT22;10667;51.056;3.732;2023-10-13T00:14:39;19.00;99.90
21019;DHT22;10667;51.056;3.732;2023-10-13T00:17:07;19.00;99.90
21019;DHT22;10667;51.056;3.732;2023-10-13T00:19:35;19.10;99.90
21019;DHT22;10667;51.056;3.732;2023-10-13T00:22:10;19.10;99.90
21019;DHT22;10667;51.056;3.732;2023-10-13T00:24:37;19.10;99.90
21019;DHT22;10667;51.056;3.732;2023-10-13T00:27:24;19.10;99.90
21019;DHT22;10667;51.056;3.732;2023-10-13T00:30:04;19.10;99.90
21019;DHT22;10667;51.056;3.732;2023-10-13T00:32:52;19.10;99.90
21019;DHT22;10667;51.056;3.732;2023-10-13T00:35:22;19.10;99.90
21019;DHT22;10667;51.056;3.732;2023-10-13T00:37:52;19.10;99.90
21019;DHT22;10667;51.056;3.732;2023-10-13T00:40:22;19.20;99.90
21019;DHT22;10667;51.056;3.732;2023-10-13T00:43:07;19.10;99.90
21019;DHT22;10667;51.056;3.732;2023-10-13T00:48:24;19.10;99.90
21019;DHT22;10667;51.056;3.732;2023-10-13T00:50:58;19.10;99.90
21019;DHT22;10667;51.056;3.732;2023-10-13T00:53:36;19.10;99.90
21019;DHT22;10667;51.056;3.732;2023-10-13T00:56:10;19.10;99.90
21019;DHT22;10667;51.056;3.732;2023-10-13T00:58:48;19.00;99.90
21019;DHT22;10667;51.056;3.732;2023-10-13T01:01:17;19.00;99.90
21019;DHT22;10667;51.056;3.732;2023-10-13T01:03:48;19.00;99.90
21019;DHT22;10667;51.056;3.732;2023-10-13T01:06:18;18.90;99.90
21019;DHT22;10667;51.056;3.732;2023-10-13T01:08:48;18.90;99.90
21019;DHT22;10667;51.056;3.732;2023-10-13T01:11:19;18.90;99.90
21019;DHT22;10667;51.056;3.732;2023-10-13T01:13:49;18.90;99.90
21019;DHT22;10667;51.056;3.732;2023-10-13T01:16:20;18.90;99.90
21019;DHT22;10667;51.056;3.732;2023-10-13T01:18:52;18.90;99.90
21019;DHT22;10667;51.056;3.732;2023-10-13T01:21:18;18.80;99.90
21019;DHT22;10667;51.056;3.732;2023-10-13T01:23:53;18.70;99.90
21019;DHT22;10667;51.056;3.732;2023-10-13T01:26:19;18.70;99.90
21019;DHT22;10667;51.056;3.732;2023-10-13T01:28:52;18.60;99.90
21019;DHT22;10667;51.056;3.732;2023-10-13T01:31:21;18.60;99.90
21019;DHT22;10667;51.056;3.732;2023-10-13T01:33:53;18.70;99.90
21019;DHT22;10667;51.056;3.732;2023-10-13T01:36:21;18.60;99.90
21019;DHT22;10667;51.056;3.732;2023-10-13T01:38:47;18.80;99.90
21019;DHT22;10667;51.056;3.732;2023-10-13T01:41:13;18.80;99.90
21019;DHT22;10667;51.056;3.732;2023-10-13T01:43:39;18.80;99.90
21019;DHT22;10667;51.056;3.732;2023-10-13T01:46:05;18.80;99.90
21019;DHT22;10667;51.056;3.732;2023-10-13T01:48:30;18.80;99.90
21019;DHT22;10667;51.056;3.732;2023-10-13T01:50:58;18.80;99.90
21019;DHT22;10667;51.056;3.732;2023-10-13T01:53:27;18.80;99.90
21019;DHT22;10667;51.056;3.732;2023-10-13T01:55:54;18.80;99.90
21019;DHT22;10667;51.056;3.732;2023-10-13T01:58:23;18.80;99.90
21019;DHT22;10667;51.056;3.732;2023-10-13T02:00:48;18.80;99.90
21019;DHT22;10667;51.056;3.732;2023-10-13T02:03:15;18.80;99.90
21019;DHT22;10667;51.056;3.732;2023-10-13T02:05:46;18.80;99.90
21019;DHT22;10667;51.056;3.732;2023-10-13T02:08:21;18.80;99.90
21019;DHT22;10667;51.056;3.732;2023-10-13T02:10:54;18.80;99.90
21019;DHT22;10667;51.056;3.732;2023-10-13T02:13:22;18.90;99.90
21019;DHT22;10667;51.056;3.732;2023-10-13T02:15:49;18.90;99.90
21019;DHT22;10667;51.056;3.732;2023-10-13T02:18:18;18.90;99.90
21019;DHT22;10667;51.056;3.732;2023-10-13T02:20:55;19.00;99.90
21019;DHT22;10667;51.056;3.732;2023-10-13T02:23:25;18.90;99.90
21019;DHT22;10667;51.056;3.732;2023-10-13T02:25:55;19.00;99.90
21019;DHT22;10667;51.056;3.732;2023-10-13T02:28:29;19.00;99.90
21019;DHT22;10667;51.056;3.732;2023-10-13T02:31:02;19.00;99.90
21019;DHT22;10667;51.056;3.732;2023-10-13T02:33:29;18.90;99.90
21019;DHT22;10667;51.056;3.732;2023-10-13T02:36:00;18.90;99.90
21019;DHT22;10667;51.056;3.732;2023-10-13T02:38:29;18.90;99.90
21019;DHT22;10667;51.056;3.732;2023-10-13T02:41:10;18.90;99.90
21019;DHT22;10667;51.056;3.732;2023-10-13T02:43:36;19.00;99.90
21019;DHT22;10667;51.056;3.732;2023-10-13T02:46:02;18.90;99.90
21019;DHT22;10667;51.056;3.732;2023-10-13T02:48:29;19.00;99.90
21019;DHT22;10667;51.056;3.732;2023-10-13T02:51:08;19.00;99.90
21019;DHT22;10667;51.056;3.732;2023-10-13T02:53:44;19.00;99.90
21019;DHT22;10667;51.056;3.732;2023-10-13T02:56:14;19.00;99.90
21019;DHT22;10667;51.056;3.732;2023-10-13T02:58:50;19.10;99.90
21019;DHT22;10667;51.056;3.732;2023-10-13T03:01:22;19.10;99.90
21019;DHT22;10667;51.056;3.732;2023-10-13T03:03:53;19.10;99.90
21019;DHT22;10667;51.056;3.732;2023-10-13T03:06:20;19.00;99.90
21019;DHT22;10667;51.056;3.732;2023-10-13T03:08:58;19.10;99.90
21019;DHT22;10667;51.056;3.732;2023-10-13T03:11:39;19.10;99.90
21019;DHT22;10667;51.056;3.732;2023-10-13T03:14:09;19.10;99.90
21019;DHT22;10667;51.056;3.732;2023-10-13T03:16:45;19.10;99.90
21019;DHT22;10667;51.056;3.732;2023-10-13T03:19:11;19.20;99.90
21019;DHT22;10667;51.056;3.732;2023-10-13T03:21:36;19.30;99.90
21019;DHT22;10667;51.056;3.732;2023-10-13T03:24:02;19.30;99.90
21019;DHT22;10667;51.056;3.732;2023-10-13T03:26:32;19.30;99.90
21019;DHT22;10667;51.056;3.732;2023-10-13T03:29:03;19.40;99.90
21019;DHT22;10667;51.056;3.732;2023-10-13T03:31:32;19.40;99.90
21019;DHT22;10667;51.056;3.732;2023-10-13T03:34:03;19.40;99.90
21019;DHT22;10667;51.056;3.732;2023-10-13T03:36:29;19.40;99.90
21019;DHT22;10667;51.056;3.732;2023-10-13T03:39:13;19.40;99.90
21019;DHT22;10667;51.056;3.732;2023-10-13T03:41:39;19.40;99.90
21019;DHT22;10667;51.056;3.732;2023-10-13T03:44:06;19.40;99.90
21019;DHT22;10667;51.056;3.732;2023-10-13T03:46:39;19.50;99.90
21019;DHT22;10667;51.056;3.732;2023-10-13T03:49:08;19.50;99.90
21019;DHT22;10667;51.056;3.732;2023-10-13T03:51:39;19.50;99.90
21019;DHT22;10667;51.056;3.732;2023-10-13T03:54:05;19.50;99.90
21019;DHT22;10667;51.056;3.732;2023-10-13T03:56:34;19.50;99.90
21019;DHT22;10667;51.056;3.732;2023-10-13T03:59:07;19.50;99.90
21019;DHT22;10667;51.056;3.732;2023-10-13T04:01:44;19.40;99.90
21019;DHT22;10667;51.056;3.732;2023-10-13T04:04:19;19.40;99.90
21019;DHT22;10667;51.056;3.732;2023-10-13T04:07:03;19.40;99.90
21019;DHT22;10667;51.056;3.732;2023-10-13T04:09:36;19.30;99.90
21019;DHT22;10667;51.056;3.732;2023-10-13T04:12:07;19.30;99.90
21019;DHT22;10667;51.056;3.732;2023-10-13T04:14:43;19.30;99.90
21019;DHT22;10667;51.056;3.732;2023-10-13T04:17:40;19.20;99.90
21019;DHT22;10667;51.056;3.732;2023-10-13T04:20:13;19.20;99.90
21019;DHT22;10667;51.056;3.732;2023-10-13T04:22:52;19.20;99.90
21019;DHT22;10667;51.056;3.732;2023-10-13T04:25:20;19.20;99.90
21019;DHT22;10667;51.056;3.732;2023-10-13T04:28:17;19.20;99.90
21019;DHT22;10667;51.056;3.732;2023-10-13T04:31:00;19.20;99.90
21019;DHT22;10667;51.056;3.732;2023-10-13T04:33:37;19.10;99.90
21019;DHT22;10667;51.056;3.732;2023-10-13T04:36:21;19.10;99.90
21019;DHT22;10667;51.056;3.732;2023-10-13T04:38:58;19.20;99.90
21019;DHT22;10667;51.056;3.732;2023-10-13T04:41:34;19.10;99.90
21019;DHT22;10667;51.056;3.732;2023-10-13T04:44:07;19.10;99.90
21019;DHT22;10667;51.056;3.732;2023-10-13T04:46:51;19.10;99.90
21019;DHT22;10667;51.056;3.732;2023-10-13T04:49:22;19.10;99.90
21019;DHT22;10667;51.056;3.732;2023-10-13T04:51:58;19.10;99.90
21019;DHT22;10667;51.056;3.732;2023-10-13T04:54:28;19.20;99.90
21019;DHT22;10667;51.056;3.732;2023-10-13T04:57:13;19.20;99.90
21019;DHT22;10667;51.056;3.732;2023-10-13T04:59:51;19.20;99.90
21019;DHT22;10667;51.056;3.732;2023-10-13T05:02:40;19.20;99.90
21019;DHT22;10667;51.056;3.732;2023-10-13T05:05:14;19.10;99.90
21019;DHT22;10667;51.056;3.732;2023-10-13T05:07:41;19.10;99.90
21019;DHT22;10667;51.056;3.732;2023-10-13T05:10:25;19.10;99.90
21019;DHT22;10667;51.056;3.732;2023-10-13T05:13:09;19.10;99.90
21019;DHT22;10667;51.056;3.732;2023-10-13T05:15:53;19.00;99.90
21019;DHT22;10667;51.056;3.732;2023-10-13T05:18:38;19.10;99.90
21019;DHT22;10667;51.056;3.732;2023-10-13T05:21:22;19.10;99.90
21019;DHT22;10667;51.056;3.732;2023-10-13T05:24:07;19.20;99.90
21019;DHT22;10667;51.056;3.732;2023-10-13T05:26:52;19.20;99.90
21019;DHT22;10667;51.056;3.732;2023-10-13T05:29:41;19.30;99.90
21019;DHT22;10667;51.056;3.732;2023-10-13T05:32:25;19.20;99.90
21019;DHT22;10667;51.056;3.732;2023-10-13T05:35:10;19.10;99.90
21019;DHT22;10667;51.056;3.732;2023-10-13T05:37:54;19.20;99.90
21019;DHT22;10667;51.056;3.732;2023-10-13T05:40:38;19.30;99.90
21019;DHT22;10667;51.056;3.732;2023-10-13T05:43:22;19.30;99.90
21019;DHT22;10667;51.056;3.732;2023-10-13T05:46:06;19.40;99.90
21019;DHT22;10667;51.056;3.732;2023-10-13T05:48:51;19.50;99.90
21019;DHT22;10667;51.056;3.732;2023-10-13T05:51:30;19.50;99.90
21019;DHT22;10667;51.056;3.732;2023-10-13T05:54:10;19.40;99.90
21019;DHT22;10667;51.056;3.732;2023-10-13T05:56:42;19.40;99.90
21019;DHT22;10667;51.056;3.732;2023-10-13T05:59:27;19.40;99.90
21019;DHT22;10667;51.056;3.732;2023-10-13T06:02:12;19.40;99.90
21019;DHT22;10667;51.056;3.732;2023-10-13T06:04:57;19.50;99.90
21019;DHT22;10667;51.056;3.732;2023-10-13T06:07:41;19.50;99.90
21019;DHT22;10667;51.056;3.732;2023-10-13T06:10:25;19.50;99.90
21019;DHT22;10667;51.056;3.732;2023-10-13T06:13:09;19.50;99.90
21019;DHT22;10667;51.056;3.732;2023-10-13T06:15:53;19.50;99.90
21019;DHT22;10667;51.056;3.732;2023-10-13T06:18:37;19.40;99.90
21019;DHT22;10667;51.056;3.732;2023-10-13T06:21:21;19.50;99.90
21019;DHT22;10667;51.056;3.732;2023-10-13T06:24:07;19.50;99.90
21019;DHT22;10667;51.056;3.732;2023-10-13T06:26:51;19.60;99.90
21019;DHT22;10667;51.056;3.732;2023-10-13T06:29:36;19.50;99.90
21019;DHT22;10667;51.056;3.732;2023-10-13T06:32:02;19.50;99.90
21019;DHT22;10667;51.056;3.732;2023-10-13T06:34:36;19.50;99.90
21019;DHT22;10667;51.056;3.732;2023-10-13T06:37:14;19.60;99.90
21019;DHT22;10667;51.056;3.732;2023-10-13T06:40:12;19.60;99.90
21019;DHT22;10667;51.056;3.732;2023-10-13T06:42:56;19.50;99.90
21019;DHT22;10667;51.056;3.732;2023-10-13T06:45:37;19.60;99.90
21019;DHT22;10667;51.056;3.732;2023-10-13T06:48:04;19.60;99.90
21019;DHT22;10667;51.056;3.732;2023-10-13T06:50:30;19.60;99.90
21019;DHT22;10667;51.056;3.732;2023-10-13T06:53:04;19.60;99.90
21019;DHT22;10667;51.056;3.732;2023-10-13T06:55:30;19.70;99.90
21019;DHT22;10667;51.056;3.732;2023-10-13T06:58:01;19.70;99.90
21019;DHT22;10667;51.056;3.732;2023-10-13T07:00:28;19.80;99.90
21019;DHT22;10667;51.056;3.732;2023-10-13T07:03:00;19.70;99.90
21019;DHT22;10667;51.056;3.732;2023-10-13T07:05:39;19.80;99.90
21019;DHT22;10667;51.056;3.732;2023-10-13T07:08:07;20.00;99.90
21019;DHT22;10667;51.056;3.732;2023-10-13T07:10:33;20.00;99.90
21019;DHT22;10667;51.056;3.732;2023-10-13T07:13:14;19.90;99.90
21019;DHT22;10667;51.056;3.732;2023-10-13T07:15:40;20.00;99.90
21019;DHT22;10667;51.056;3.732;2023-10-13T07:18:15;19.90;99.90
21019;DHT22;10667;51.056;3.732;2023-10-13T07:20:43;20.10;99.90
21019;DHT22;10667;51.056;3.732;2023-10-13T07:23:12;20.10;99.90
21019;DHT22;10667;51.056;3.732;2023-10-13T07:25:56;20.00;99.90
21019;DHT22;10667;51.056;3.732;2023-10-13T07:28:29;20.10;99.90
21019;DHT22;10667;51.056;3.732;2023-10-13T07:30:56;20.00;99.90
21019;DHT22;10667;51.056;3.732;2023-10-13T07:33:25;20.20;99.90
21019;DHT22;10667;51.056;3.732;2023-10-13T07:36:20;20.20;99.90
21019;DHT22;10667;51.056;3.732;2023-10-13T07:38:48;20.40;99.90
21019;DHT22;10667;51.056;3.732;2023-10-13T07:41:18;20.30;99.90
21019;DHT22;10667;51.056;3.732;2023-10-13T07:43:47;20.40;99.90
21019;DHT22;10667;51.056;3.732;2023-10-13T07:46:15;20.50;99.90
21019;DHT22;10667;51.056;3.732;2023-10-13T07:48:41;20.50;99.90
21019;DHT22;10667;51.056;3.732;2023-10-13T07:51:11;20.50;99.90
21019;DHT22;10667;51.056;3.732;2023-10-13T07:53:46;20.60;99.90
21019;DHT22;10667;51.056;3.732;2023-10-13T07:56:15;20.60;99.90
21019;DHT22;10667;51.056;3.732;2023-10-13T07:58:44;20.70;99.90
21019;DHT22;10667;51.056;3.732;2023-10-13T08:01:18;20.70;99.90
21019;DHT22;10667;51.056;3.732;2023-10-13T08:03:45;20.80;99.90
21019;DHT22;10667;51.056;3.732;2023-10-13T08:06:12;20.70;99.90
21019;DHT22;10667;51.056;3.732;2023-10-13T08:08:38;20.80;99.90
21019;DHT22;10667;51.056;3.732;2023-10-13T08:13:57;20.90;99.90
21019;DHT22;10667;51.056;3.732;2023-10-13T08:16:42;20.80;99.90
21019;DHT22;10667;51.056;3.732;2023-10-13T08:19:21;20.90;99.90
21019;DHT22;10667;51.056;3.732;2023-10-13T08:22:08;20.90;99.90
21019;DHT22;10667;51.056;3.732;2023-10-13T08:24:47;21.00;99.90
21019;DHT22;10667;51.056;3.732;2023-10-13T08:27:14;21.00;99.90
21019;DHT22;10667;51.056;3.732;2023-10-13T08:29:41;20.90;99.90
21019;DHT22;10667;51.056;3.732;2023-10-13T08:32:22;20.90;99.90
21019;DHT22;10667;51.056;3.732;2023-10-13T08:34:57;21.00;99.90
21019;DHT22;10667;51.056;3.732;2023-10-13T08:37:23;21.00;99.90
21019;DHT22;10667;51.056;3.732;2023-10-13T08:39:56;21.00;99.90
21019;DHT22;10667;51.056;3.732;2023-10-13T08:42:35;21.10;99.90
21019;DHT22;10667;51.056;3.732;2023-10-13T08:47:55;21.00;99.90
21019;DHT22;10667;51.056;3.732;2023-10-13T08:53:16;21.00;99.90
21019;DHT22;10667;51.056;3.732;2023-10-13T08:56:05;21.10;99.90
21019;DHT22;10667;51.056;3.732;2023-10-13T08:58:49;21.10;99.90
21019;DHT22;10667;51.056;3.732;2023-10-13T09:01:24;21.10;99.90
21019;DHT22;10667;51.056;3.732;2023-10-13T09:04:18;21.10;99.90
21019;DHT22;10667;51.056;3.732;2023-10-13T09:06:48;21.10;99.90
21019;DHT22;10667;51.056;3.732;2023-10-13T09:12:23;21.30;99.90
21019;DHT22;10667;51.056;3.732;2023-10-13T09:15:09;21.30;99.90
21019;DHT22;10667;51.056;3.732;2023-10-13T09:17:50;21.20;99.90
21019;DHT22;10667;51.056;3.732;2023-10-13T09:20:15;21.20;99.90
21019;DHT22;10667;51.056;3.732;2023-10-13T09:22:48;21.20;99.90
21019;DHT22;10667;51.056;3.732;2023-10-13T09:25:37;21.10;99.90
21019;DHT22;10667;51.056;3.732;2023-10-13T09:28:14;21.10;99.90
21019;DHT22;10667;51.056;3.732;2023-10-13T09:30:48;21.20;99.90
21019;DHT22;10667;51.056;3.732;2023-10-13T09:33:23;21.20;99.90
21019;DHT22;10667;51.056;3.732;2023-10-13T09:36:15;21.20;99.90
21019;DHT22;10667;51.056;3.732;2023-10-13T09:38:43;21.30;99.90
21019;DHT22;10667;51.056;3.732;2023-10-13T09:41:29;21.30;99.90
21019;DHT22;10667;51.056;3.732;2023-10-13T09:43:57;21.40;99.90
21019;DHT22;10667;51.056;3.732;2023-10-13T09:46:26;21.20;99.90
21019;DHT22;10667;51.056;3.732;2023-10-13T09:48:58;21.20;99.90
21019;DHT22;10667;51.056;3.732;2023-10-13T09:51:31;21.20;99.90
21019;DHT22;10667;51.056;3.732;2023-10-13T09:56:43;21.30;99.90
21019;DHT22;10667;51.056;3.732;2023-10-13T09:59:42;21.30;99.90
21019;DHT22;10667;51.056;3.732;2023-10-13T10:02:17;21.30;99.90
21019;DHT22;10667;51.056;3.732;2023-10-13T10:04:57;21.40;99.90
21019;DHT22;10667;51.056;3.732;2023-10-13T10:07:40;21.40;99.90
21019;DHT22;10667;51.056;3.732;2023-10-13T10:10:09;21.40;99.90
21019;DHT22;10667;51.056;3.732;2023-10-13T10:12:48;21.30;99.90
21019;DHT22;10667;51.056;3.732;2023-10-13T10:15:26;21.20;99.90
21019;DHT22;10667;51.056;3.732;2023-10-13T10:17:56;21.20;99.90
21019;DHT22;10667;51.056;3.732;2023-10-13T10:20:28;21.20;99.90
21019;DHT22;10667;51.056;3.732;2023-10-13T10:23:05;21.30;99.90
21019;DHT22;10667;51.056;3.732;2023-10-13T10:25:36;21.30;99.90
21019;DHT22;10667;51.056;3.732;2023-10-13T10:28:07;21.30;99.90
21019;DHT22;10667;51.056;3.732;2023-10-13T10:30:35;21.60;99.90
21019;DHT22;10667;51.056;3.732;2023-10-13T10:33:04;21.60;99.90
21019;DHT22;10667;51.056;3.732;2023-10-13T10:35:45;21.60;99.90
21019;DHT22;10667;51.056;3.732;2023-10-13T10:38:13;21.60;99.90
21019;DHT22;10667;51.056;3.732;2023-10-13T10:40:57;21.60;99.90
21019;DHT22;10667;51.056;3.732;2023-10-13T10:43:25;21.50;99.90
21019;DHT22;10667;51.056;3.732;2023-10-13T10:45:52;21.60;99.90
21019;DHT22;10667;51.056;3.732;2023-10-13T10:48:25;21.60;99.90
21019;DHT22;10667;51.056;3.732;2023-10-13T10:50:57;21.60;99.90
21019;DHT22;10667;51.056;3.732;2023-10-13T10:53:24;21.70;99.90
21019;DHT22;10667;51.056;3.732;2023-10-13T10:56:11;21.80;99.90
21019;DHT22;10667;51.056;3.732;2023-10-13T10:58:54;21.90;99.90
21019;DHT22;10667;51.056;3.732;2023-10-13T11:01:27;22.00;99.90
21019;DHT22;10667;51.056;3.732;2023-10-13T11:04:07;22.00;99.90
21019;DHT22;10667;51.056;3.732;2023-10-13T11:06:50;22.10;99.90
21019;DHT22;10667;51.056;3.732;2023-10-13T11:09:34;22.10;99.90
21019;DHT22;10667;51.056;3.732;2023-10-13T11:12:10;22.10;99.90
21019;DHT22;10667;51.056;3.732;2023-10-13T11:15:08;22.10;99.90
21019;DHT22;10667;51.056;3.732;2023-10-13T11:17:48;22.30;99.90
21019;DHT22;10667;51.056;3.732;2023-10-13T11:20:18;22.40;99.90
21019;DHT22;10667;51.056;3.732;2023-10-13T11:22:51;22.60;99.90
21019;DHT22;10667;51.056;3.732;2023-10-13T11:25:25;22.60;99.90
21019;DHT22;10667;51.056;3.732;2023-10-13T11:28:18;22.70;99.90
21019;DHT22;10667;51.056;3.732;2023-10-13T11:30:56;22.80;99.90
21019;DHT22;10667;51.056;3.732;2023-10-13T11:33:25;22.80;99.90
21019;DHT22;10667;51.056;3.732;2023-10-13T11:36:01;22.80;99.90
21019;DHT22;10667;51.056;3.732;2023-10-13T11:38:33;22.70;99.90
21019;DHT22;10667;51.056;3.732;2023-10-13T11:41:14;22.90;99.90
21019;DHT22;10667;51.056;3.732;2023-10-13T11:43:45;22.90;99.90
21019;DHT22;10667;51.056;3.732;2023-10-13T11:46:27;22.90;99.90
21019;DHT22;10667;51.056;3.732;2023-10-13T11:49:09;22.90;99.90
21019;DHT22;10667;51.056;3.732;2023-10-13T11:51:52;22.90;99.90
21019;DHT22;10667;51.056;3.732;2023-10-13T11:54:27;22.90;99.90
21019;DHT22;10667;51.056;3.732;2023-10-13T11:56:53;23.00;99.90
21019;DHT22;10667;51.056;3.732;2023-10-13T11:59:23;22.90;99.90
21019;DHT22;10667;51.056;3.732;2023-10-13T12:01:53;22.90;99.90
21019;DHT22;10667;51.056;3.732;2023-10-13T12:04:39;22.90;99.90
21019;DHT22;10667;51.056;3.732;2023-10-13T12:07:23;23.00;99.90
21019;DHT22;10667;51.056;3.732;2023-10-13T12:10:07;23.20;99.90
21019;DHT22;10667;51.056;3.732;2023-10-13T12:12:41;23.30;99.90
21019;DHT22;10667;51.056;3.732;2023-10-13T12:15:09;23.40;99.90
21019;DHT22;10667;51.056;3.732;2023-10-13T12:17:36;23.60;99.90
21019;DHT22;10667;51.056;3.732;2023-10-13T12:20:06;23.70;99.90
21019;DHT22;10667;51.056;3.732;2023-10-13T12:22:38;23.90;99.90
21019;DHT22;10667;51.056;3.732;2023-10-13T12:25:08;24.00;99.90
21019;DHT22;10667;51.056;3.732;2023-10-13T12:27:52;24.10;99.90
21019;DHT22;10667;51.056;3.732;2023-10-13T12:30:25;24.20;99.90
21019;DHT22;10667;51.056;3.732;2023-10-13T12:33:10;24.20;99.90
21019;DHT22;10667;51.056;3.732;2023-10-13T12:35:36;24.30;99.90
21019;DHT22;10667;51.056;3.732;2023-10-13T12:38:37;24.20;99.90
21019;DHT22;10667;51.056;3.732;2023-10-13T12:41:13;24.20;99.90
21019;DHT22;10667;51.056;3.732;2023-10-13T12:43:57;24.10;99.90
21019;DHT22;10667;51.056;3.732;2023-10-13T12:46:41;23.90;99.90
21019;DHT22;10667;51.056;3.732;2023-10-13T12:49:26;23.80;99.90
21019;DHT22;10667;51.056;3.732;2023-10-13T12:52:10;23.70;99.90
21019;DHT22;10667;51.056;3.732;2023-10-13T12:54:45;23.70;99.90
21019;DHT22;10667;51.056;3.732;2023-10-13T12:57:29;23.40;99.90
21019;DHT22;10667;51.056;3.732;2023-10-13T12:59:57;23.20;99.90
21019;DHT22;10667;51.056;3.732;2023-10-13T13:02:24;23.20;99.90
21019;DHT22;10667;51.056;3.732;2023-10-13T13:04:56;23.10;99.90
21019;DHT22;10667;51.056;3.732;2023-10-13T13:07:34;23.20;99.90
21019;DHT22;10667;51.056;3.732;2023-10-13T13:10:10;23.20;99.90
21019;DHT22;10667;51.056;3.732;2023-10-13T13:12:36;23.10;99.90
21019;DHT22;10667;51.056;3.732;2023-10-13T13:15:03;23.10;99.90
21019;DHT22;10667;51.056;3.732;2023-10-13T13:17:40;23.10;99.90
21019;DHT22;10667;51.056;3.732;2023-10-13T13:20:06;23.10;99.90
21019;DHT22;10667;51.056;3.732;2023-10-13T13:22:53;23.20;99.90
21019;DHT22;10667;51.056;3.732;2023-10-13T13:25:19;23.20;99.90
21019;DHT22;10667;51.056;3.732;2023-10-13T13:27:51;23.20;99.90
21019;DHT22;10667;51.056;3.732;2023-10-13T13:30:17;23.30;99.90
21019;DHT22;10667;51.056;3.732;2023-10-13T13:32:45;23.30;99.90
21019;DHT22;10667;51.056;3.732;2023-10-13T13:35:12;23.30;99.90
21019;DHT22;10667;51.056;3.732;2023-10-13T13:37:40;23.20;99.90
21019;DHT22;10667;51.056;3.732;2023-10-13T13:40:08;23.00;99.90
21019;DHT22;10667;51.056;3.732;2023-10-13T13:42:41;23.00;99.90
21019;DHT22;10667;51.056;3.732;2023-10-13T13:45:18;23.00;99.90
21019;DHT22;10667;51.056;3.732;2023-10-13T13:47:52;23.00;99.90
21019;DHT22;10667;51.056;3.732;2023-10-13T13:50:22;22.90;99.90
21019;DHT22;10667;51.056;3.732;2023-10-13T13:52:55;22.90;99.90
21019;DHT22;10667;51.056;3.732;2023-10-13T13:55:25;22.90;99.90
21019;DHT22;10667;51.056;3.732;2023-10-13T13:57:58;23.00;99.90
21019;DHT22;10667;51.056;3.732;2023-10-13T14:00:24;23.00;99.90
21019;DHT22;10667;51.056;3.732;2023-10-13T14:03:13;23.00;99.90
21019;DHT22;10667;51.056;3.732;2023-10-13T14:05:57;23.00;99.90
21019;DHT22;10667;51.056;3.732;2023-10-13T14:08:24;22.90;99.90
21019;DHT22;10667;51.056;3.732;2023-10-13T14:10:51;23.00;99.90
21019;DHT22;10667;51.056;3.732;2023-10-13T14:13:39;23.00;99.90
21019;DHT22;10667;51.056;3.732;2023-10-13T14:16:15;22.90;99.90
21019;DHT22;10667;51.056;3.732;2023-10-13T14:18:48;23.00;99.90
21019;DHT22;10667;51.056;3.732;2023-10-13T14:21:14;23.00;99.90
21019;DHT22;10667;51.056;3.732;2023-10-13T14:26:12;23.00;99.90
21019;DHT22;10667;51.056;3.732;2023-10-13T14:28:38;23.00;99.90
21019;DHT22;10667;51.056;3.732;2023-10-13T14:31:16;22.90;99.90
21019;DHT22;10667;51.056;3.732;2023-10-13T14:33:42;23.00;99.90
21019;DHT22;10667;51.056;3.732;2023-10-13T14:36:10;22.90;99.90
21019;DHT22;10667;51.056;3.732;2023-10-13T14:38:35;23.00;99.90
21019;DHT22;10667;51.056;3.732;2023-10-13T14:41:01;23.10;99.90
21019;DHT22;10667;51.056;3.732;2023-10-13T14:43:27;23.20;99.90
21019;DHT22;10667;51.056;3.732;2023-10-13T14:45:55;23.00;99.90
21019;DHT22;10667;51.056;3.732;2023-10-13T14:48:21;22.90;99.90
21019;DHT22;10667;51.056;3.732;2023-10-13T14:50:49;22.80;99.90
21019;DHT22;10667;51.056;3.732;2023-10-13T14:53:15;22.70;99.90
21019;DHT22;10667;51.056;3.732;2023-10-13T14:55:45;22.80;99.90
21019;DHT22;10667;51.056;3.732;2023-10-13T14:58:11;22.80;99.90
21019;DHT22;10667;51.056;3.732;2023-10-13T15:00:42;22.90;99.90
21019;DHT22;10667;51.056;3.732;2023-10-13T15:03:11;22.80;99.90
21019;DHT22;10667;51.056;3.732;2023-10-13T15:05:40;22.80;99.90
21019;DHT22;10667;51.056;3.732;2023-10-13T15:08:09;22.90;99.90
21019;DHT22;10667;51.056;3.732;2023-10-13T15:10:34;22.90;99.90
21019;DHT22;10667;51.056;3.732;2023-10-13T15:13:03;22.90;99.90
21019;DHT22;10667;51.056;3.732;2023-10-13T15:15:29;22.90;99.90
21019;DHT22;10667;51.056;3.732;2023-10-13T15:17:58;23.00;99.90
21019;DHT22;10667;51.056;3.732;2023-10-13T15:20:23;23.10;99.90
21019;DHT22;10667;51.056;3.732;2023-10-13T15:22:49;23.20;99.90
21019;DHT22;10667;51.056;3.732;2023-10-13T15:25:15;23.20;99.90
21019;DHT22;10667;51.056;3.732;2023-10-13T15:27:56;23.30;99.90
21019;DHT22;10667;51.056;3.732;2023-10-13T15:30:25;23.10;99.90
21019;DHT22;10667;51.056;3.732;2023-10-13T15:33:08;23.10;99.90
21019;DHT22;10667;51.056;3.732;2023-10-13T15:35:33;23.00;99.90
21019;DHT22;10667;51.056;3.732;2023-10-13T15:37:59;23.00;99.90
21019;DHT22;10667;51.056;3.732;2023-10-13T15:40:26;23.10;99.90
21019;DHT22;10667;51.056;3.732;2023-10-13T15:42:53;23.10;99.90
21019;DHT22;10667;51.056;3.732;2023-10-13T15:45:25;22.90;99.90
21019;DHT22;10667;51.056;3.732;2023-10-13T15:47:57;22.90;99.90
21019;DHT22;10667;51.056;3.732;2023-10-13T15:50:23;22.90;99.90
21019;DHT22;10667;51.056;3.732;2023-10-13T15:52:49;22.90;99.90
21019;DHT22;10667;51.056;3.732;2023-10-13T15:55:16;22.90;99.90
21019;DHT22;10667;51.056;3.732;2023-10-13T15:57:44;22.90;99.90
21019;DHT22;10667;51.056;3.732;2023-10-13T16:00:11;22.70;99.90
21019;DHT22;10667;51.056;3.732;2023-10-13T16:02:53;22.60;99.90
21019;DHT22;10667;51.056;3.732;2023-10-13T16:05:23;22.40;99.90
21019;DHT22;10667;51.056;3.732;2023-10-13T16:07:52;22.30;99.90
21019;DHT22;10667;51.056;3.732;2023-10-13T16:10:21;22.20;99.90
21019;DHT22;10667;51.056;3.732;2023-10-13T16:12:47;22.20;99.90
21019;DHT22;10667;51.056;3.732;2023-10-13T16:15:13;22.20;99.90
21019;DHT22;10667;51.056;3.732;2023-10-13T16:17:41;22.10;99.90
21019;DHT22;10667;51.056;3.732;2023-10-13T16:20:08;22.00;99.90
21019;DHT22;10667;51.056;3.732;2023-10-13T16:22:43;21.90;99.90
21019;DHT22;10667;51.056;3.732;2023-10-13T16:25:10;22.00;99.90
21019;DHT22;10667;51.056;3.732;2023-10-13T16:27:42;22.00;99.90
21019;DHT22;10667;51.056;3.732;2023-10-13T16:30:13;22.00;99.90
21019;DHT22;10667;51.056;3.732;2023-10-13T16:32:45;22.10;99.90